Terminal Aerodrome Forecast
Issued by NWS Cleveland, OH

Home | Current Version | Previous Version | Graphics & Text | Print | Product List | Glossary On
Versions: 1 2 3 4 5 6 7 8 9 10 11 12 13 14 15 16
088
FTUS41 KCLE 211739
TAFCAK
TAF
KCAK 211739Z 2118/2218 30008KT 5SM BR BKN015
     FM211900 30008KT P6SM SCT015
     FM220100 32012G20KT P6SM SCT025 OVC035
     FM220500 34014G22KT P6SM OVC025
     FM221400 36012KT P6SM SCT025=

USA.gov is the U.S. government's official web portal to all federal, state and local government web resources and services.